Карточка аэропорта UHMM

Внимание!
Информация на этой странице в стадии наполнения.
Если вы не увидели какой-то информации, или заметили неточность - пожалуйста сообщите нам!
Спасибо!
Команда RU-STAFF
Название аэропортаСокол
Название аэропорта (англ.)Sokol
Превышение575 ft. (175.3 m.)
Координаты59°54.648', 150°43.2'
Высота перехода10000 ft
Эшелон переходаQNH>=1013hPa: FL110; 1013hPa>QNH>=977hPa: FL120; QNH<977hPa: FL130
Коды ответчика6540-6577
Зона ОрВДМагадан РПИ (UHMM)
Данные METARUHMM 190200Z 21006MPS 9999 FEW040 18/09 Q1010 R10/70D NOSIG RMK QFE743 R28/25005MPS
Проноз погоды (TAF)UHMM 190150Z 1903/2009 22005G11MPS 9999 BKN030CB TEMPO 1912/1923 1000 BR VV003 FM200000 10003G08MPS 9999 BKN023CB TEMPO 2000/2009 4000 -SHRA BKN011 BKN017CB
NOTAMshow/hide NOTAM
AWOS   TABLE

Информация о ВПП


Диспетчерские позиции

Позывной Наименование органа УВД Частота
UHMM_APPМагадан-Подход119.3
UHMM_TWRМагадан-Вышка120.8



Спутниковое изображение